KRDG/RDG METAR and TAF weather

Enter ICAO airport designator
Station Type Date Time Source
KRDG METAR 2020/01/23 05:54 UTC NOAA

KRDG 230554Z AUTO 00000KT 10SM CLR M06/M08 A3041 RMK AO2 SLP306 T10561078 11006 21061 58004


Station Type Date Time Source
KRDG Decoded METAR 2020/01/23 05:54 UTC NOAA

READING REGIONAL AIRPORT, PA, United States (KRDG) 40-22N 075-58W 109M
Jan 23, 2020 - 12:54 AM EST / 2020.01.23 0554 UTC
Wind: Calm:0
Visibility: 10 mile(s):0
Sky conditions: clear
Temperature: 21.9 F (-5.6 C)
Dew Point: 18.0 F (-7.8 C)
Relative Humidity: 84%
Pressure (altimeter): 30.41 in. Hg (1029 hPa)
Pressure tendency: 0.01 inches (0.4 hPa) lower than three hours ago
ob: KRDG 230554Z AUTO 00000KT 10SM CLR M06/M08 A3041 RMK AO2 SLP306 T10561078 11006 21061 58004
cycle: 6

Station Type Date Time Source
KRDG TAF 2020/01/23 06:22 UTC NOAA

TAF KRDG 230520Z 2306/2406 VRB03KT P6SM BKN250

Example: see airport list